VEGT/GAU METAR and TAF weather

Enter ICAO airport designator
Station Type Date Time Source
VEGT METAR 2021/07/29 03:00 UTC NOAA

VEGT 290300Z 04005KT 4000 BR SCT018 FEW025CB BKN100 30/25 Q0998 NOSIG


Station Type Date Time Source
VEGT Decoded METAR 2021/07/29 03:00 UTC NOAA

Gauhati, India (VEGT) 26-06N 091-35E 54M
Jul 28, 2021 - 11:00 PM EDT / 2021.07.29 0300 UTC
Wind: from the NE (040 degrees) at 6 MPH (5 KT):0
Visibility: 2 mile(s):0
Sky conditions: mostly cloudy
Weather: mist; Cumulonimbus clouds observed
Temperature: 86 F (30 C)
Heat index: 96.8 F (36.0 C):1
Dew Point: 77 F (25 C)
Relative Humidity: 74%
Pressure (altimeter): 29.47 in. Hg (0998 hPa)
ob: VEGT 290300Z 04005KT 4000 BR SCT018 FEW025CB BKN100 30/25 Q0998 NOSIG
cycle: 3

Station Type Date Time Source
VEGT TAF 2020/12/17 12:52 UTC NOAA

TAF VEGT 171100Z 1712/1818 03005KT 2000 BR SCT018 BKN100
BECMG 1713/1715 00000KT 1500 BR
BECMG 1800/1802 0800 FG FEW008
BECMG 1803/1805 03004KT 2000 BR SCT018 BKN100
BECMG 1806/1808 34008KT 3000 HZ FEW020
BECMG 1813/1815 00000KT 2000 BR FEW018 SCT100

Example: see airport list